createdAt,value
2018-06-09T00:00:54.840Z,12.93
2018-06-09T00:03:24.392Z,13.50
2018-06-09T00:05:53.915Z,13.83
2018-06-09T00:08:23.246Z,13.97
2018-06-09T00:10:52.520Z,13.23
2018-06-09T00:13:22.070Z,14.60
2018-06-09T00:15:51.461Z,15.10
2018-06-09T00:18:20.776Z,13.90
2018-06-09T00:20:50.109Z,12.70
2018-06-09T00:23:19.407Z,13.00
2018-06-09T00:25:48.730Z,14.40
2018-06-09T00:28:18.083Z,14.20
2018-06-09T00:30:47.411Z,14.20
2018-06-09T00:33:16.739Z,13.00
2018-06-09T00:35:46.491Z,14.03
2018-06-09T00:38:16.484Z,13.37
2018-06-09T00:40:45.795Z,16.10
2018-06-09T00:43:15.110Z,15.77
2018-06-09T00:45:44.462Z,14.73
2018-06-09T00:48:13.791Z,14.47
2018-06-09T00:50:43.123Z,13.57
2018-06-09T00:53:12.713Z,12.00
2018-06-09T00:55:42.023Z,14.13
2018-06-09T00:58:11.574Z,11.70
2018-06-09T01:00:40.871Z,13.40
2018-06-09T01:03:10.168Z,13.80
2018-06-09T01:05:39.587Z,12.70
2018-06-09T01:08:08.912Z,12.50
2018-06-09T01:10:38.191Z,12.97
2018-06-09T01:13:07.510Z,13.57
2018-06-09T01:15:36.795Z,13.30
2018-06-09T01:18:06.146Z,13.90
2018-06-09T01:20:35.950Z,13.00
2018-06-09T01:23:05.339Z,13.30
2018-06-09T01:25:34.706Z,14.00
2018-06-09T01:28:04.064Z,13.70
2018-06-09T01:30:33.363Z,14.07
2018-06-09T01:33:02.657Z,14.40
2018-06-09T01:35:31.958Z,15.23
2018-06-09T01:38:01.235Z,14.13
2018-06-09T01:40:30.591Z,14.67
2018-06-09T01:43:00.080Z,12.73
2018-06-09T01:45:29.437Z,13.90
2018-06-09T01:47:58.738Z,13.60
2018-06-09T01:50:28.065Z,13.63
2018-06-09T01:52:57.326Z,11.80
2018-06-09T01:55:26.855Z,14.93
2018-06-09T01:57:56.143Z,12.33
2018-06-09T02:00:25.435Z,12.90
2018-06-09T02:02:54.878Z,12.00
2018-06-09T02:05:24.536Z,12.47
2018-06-09T02:07:53.853Z,12.50
2018-06-09T02:10:23.163Z,11.03
2018-06-09T02:12:52.488Z,10.97
2018-06-09T02:15:21.763Z,11.37
2018-06-09T02:17:51.086Z,10.90
2018-06-09T02:20:20.405Z,10.50
2018-06-09T02:22:49.886Z,9.90
2018-06-09T02:25:19.166Z,10.70
2018-06-09T02:27:49.039Z,11.47
2018-06-09T02:30:18.387Z,10.80
2018-06-09T02:32:47.705Z,9.93
2018-06-09T02:35:17.069Z,10.03
2018-06-09T02:37:46.418Z,10.50
2018-06-09T02:40:15.691Z,9.83
2018-06-09T02:42:45.194Z,11.03
2018-06-09T02:45:14.538Z,12.00
2018-06-09T02:47:43.895Z,11.27
2018-06-09T02:50:13.776Z,10.40
2018-06-09T02:52:43.111Z,8.73
2018-06-09T02:55:12.452Z,8.93
2018-06-09T02:57:42.300Z,9.23
2018-06-09T03:00:11.638Z,11.27
2018-06-09T03:02:40.932Z,11.00
2018-06-09T03:05:10.232Z,10.93
2018-06-09T03:07:39.598Z,10.63
2018-06-09T03:10:08.605Z,11.17
2018-06-09T03:12:38.309Z,10.83
2018-06-09T03:15:07.634Z,10.30
2018-06-09T03:17:36.918Z,10.17
2018-06-09T03:20:06.211Z,10.17
2018-06-09T03:22:35.510Z,10.10
2018-06-09T03:25:04.807Z,10.67
2018-06-09T03:27:34.125Z,10.60
2018-06-09T03:30:03.434Z,11.70
2018-06-09T03:32:32.754Z,11.47
2018-06-09T03:35:02.315Z,9.90
2018-06-09T03:37:31.642Z,10.30
2018-06-09T03:40:01.002Z,11.17
2018-06-09T03:42:30.618Z,10.40
2018-06-09T03:44:59.959Z,12.33
2018-06-09T03:47:29.228Z,10.90
2018-06-09T03:49:58.583Z,11.00
2018-06-09T03:52:28.086Z,10.83
2018-06-09T03:54:57.387Z,10.70
2018-06-09T03:57:26.763Z,10.60
2018-06-09T03:59:56.592Z,11.93
2018-06-09T04:02:25.956Z,10.77
2018-06-09T04:04:55.263Z,10.57
2018-06-09T04:07:24.621Z,10.70
2018-06-09T04:09:54.323Z,11.47
2018-06-09T04:12:23.651Z,10.97
2018-06-09T04:14:53.163Z,11.53
2018-06-09T04:17:22.483Z,11.23
2018-06-09T04:19:52.292Z,12.37
2018-06-09T04:22:21.610Z,11.73
2018-06-09T04:24:50.945Z,11.67
2018-06-09T04:27:20.285Z,11.00
2018-06-09T04:29:49.648Z,11.27
2018-06-09T04:32:18.932Z,11.40
2018-06-09T04:34:48.268Z,10.20
2018-06-09T04:37:18.495Z,11.07
2018-06-09T04:39:47.810Z,10.27
2018-06-09T04:42:17.239Z,9.30
2018-06-09T04:44:46.540Z,9.33
2018-06-09T04:47:15.817Z,9.57
2018-06-09T04:49:45.089Z,9.20
2018-06-09T04:52:14.390Z,9.70
2018-06-09T04:54:43.664Z,8.93
2018-06-09T04:57:12.988Z,10.23
2018-06-09T04:59:42.296Z,9.83
2018-06-09T05:02:12.076Z,10.67
2018-06-09T05:04:41.813Z,8.60
2018-06-09T05:07:11.144Z,8.13
2018-06-09T05:09:40.458Z,9.17
2018-06-09T05:12:09.786Z,6.87
2018-06-09T05:14:39.059Z,7.00
2018-06-09T05:17:08.412Z,7.30
2018-06-09T05:19:37.750Z,7.80
2018-06-09T05:22:07.100Z,7.30
2018-06-09T05:24:36.399Z,6.40
2018-06-09T05:27:06.084Z,5.90
2018-06-09T05:29:35.399Z,5.73
2018-06-09T05:32:04.669Z,6.40
2018-06-09T05:34:33.964Z,5.63
2018-06-09T05:37:03.337Z,5.57
2018-06-09T05:39:32.674Z,5.60
2018-06-09T05:42:02.071Z,6.50
2018-06-09T05:44:31.328Z,5.67
2018-06-09T05:47:00.612Z,5.87
2018-06-09T05:49:30.063Z,5.53
2018-06-09T05:51:59.392Z,6.10
2018-06-09T05:54:28.678Z,4.70
2018-06-09T05:56:57.959Z,4.50
2018-06-09T05:59:27.289Z,4.80
2018-06-09T06:01:56.591Z,4.40
2018-06-09T06:04:26.379Z,4.10
2018-06-09T06:06:55.650Z,4.10
2018-06-09T06:09:25.042Z,4.13
2018-06-09T06:11:54.891Z,4.10
2018-06-09T06:14:24.256Z,3.87
2018-06-09T06:16:53.554Z,3.50
2018-06-09T06:19:22.956Z,4.03
2018-06-09T06:21:52.291Z,3.43
2018-06-09T06:24:21.625Z,3.53
2018-06-09T06:26:51.004Z,3.17
2018-06-09T06:29:20.274Z,3.00
2018-06-09T06:31:49.560Z,3.30
2018-06-09T06:34:19.291Z,3.03
2018-06-09T06:36:48.618Z,2.93
2018-06-09T06:39:18.041Z,3.20
2018-06-09T06:41:47.478Z,3.40
2018-06-09T06:44:16.812Z,3.30
2018-06-09T06:46:46.114Z,3.30
2018-06-09T06:49:15.706Z,4.47
2018-06-09T06:51:45.022Z,2.50
2018-06-09T06:54:14.299Z,3.07
2018-06-09T06:56:44.203Z,3.00
2018-06-09T06:59:13.704Z,3.03
2018-06-09T07:01:42.987Z,3.13
2018-06-09T07:04:12.531Z,3.13
2018-06-09T07:06:42.445Z,3.07
2018-06-09T07:09:11.751Z,2.73
2018-06-09T07:11:41.050Z,2.60
2018-06-09T07:14:10.423Z,3.10
2018-06-09T07:16:39.737Z,2.90
2018-06-09T07:19:09.359Z,2.60
2018-06-09T07:21:38.668Z,2.60
2018-06-09T07:24:07.960Z,3.10
2018-06-09T07:26:37.296Z,2.83
2018-06-09T07:29:06.601Z,2.70
2018-06-09T07:31:36.045Z,2.40
2018-06-09T07:34:05.670Z,2.20
2018-06-09T07:36:34.945Z,2.60
2018-06-09T07:39:06.106Z,2.33
2018-06-09T07:41:35.791Z,2.93
2018-06-09T07:44:05.186Z,2.80
2018-06-09T07:46:34.808Z,2.60
2018-06-09T07:49:04.098Z,2.43
2018-06-09T07:51:33.619Z,2.73
2018-06-09T07:54:03.100Z,2.67
2018-06-09T07:56:32.446Z,3.23
2018-06-09T07:59:01.772Z,2.30
2018-06-09T08:01:31.597Z,2.77
2018-06-09T08:04:00.866Z,1.93
2018-06-09T08:06:30.142Z,2.33
2018-06-09T08:08:59.555Z,2.20
2018-06-09T08:11:28.822Z,2.53
2018-06-09T08:13:58.223Z,2.47
2018-06-09T08:16:27.506Z,2.60
2018-06-09T08:18:56.976Z,2.37
2018-06-09T08:21:26.484Z,2.17
2018-06-09T08:23:55.717Z,2.40
2018-06-09T08:26:25.276Z,2.43
2018-06-09T08:28:54.595Z,2.60
2018-06-09T08:31:23.743Z,1.97
2018-06-09T08:33:53.047Z,2.30
2018-06-09T08:36:22.477Z,2.67
2018-06-09T08:38:51.811Z,2.60
2018-06-09T08:41:21.078Z,2.50
2018-06-09T08:43:50.350Z,2.60
2018-06-09T08:46:19.714Z,2.40
2018-06-09T08:48:48.954Z,2.30
2018-06-09T08:51:18.260Z,2.40
2018-06-09T08:53:47.613Z,2.17
2018-06-09T08:56:16.882Z,2.07
2018-06-09T08:58:46.181Z,2.50
2018-06-09T09:01:15.479Z,2.20
2018-06-09T09:03:44.751Z,2.50
2018-06-09T09:06:14.288Z,2.70
2018-06-09T09:08:43.966Z,2.73
2018-06-09T09:11:13.778Z,2.20
2018-06-09T09:13:43.077Z,2.70
2018-06-09T09:16:12.369Z,2.33
2018-06-09T09:18:41.479Z,2.03
2018-06-09T09:21:10.822Z,2.50
2018-06-09T09:23:40.181Z,2.83
2018-06-09T09:26:09.484Z,2.37
2018-06-09T09:28:38.802Z,2.50
2018-06-09T09:31:08.467Z,1.90
2018-06-09T09:33:37.795Z,2.00
2018-06-09T09:36:07.248Z,2.13
2018-06-09T09:38:36.619Z,2.63
2018-06-09T09:41:05.968Z,2.70
2018-06-09T09:43:35.306Z,2.50
2018-06-09T09:46:04.651Z,2.40
2018-06-09T09:48:33.975Z,2.70
2018-06-09T09:51:03.381Z,2.80
2018-06-09T09:53:33.232Z,2.57
2018-06-09T09:56:02.524Z,2.10
2018-06-09T09:58:31.625Z,2.57
2018-06-09T10:01:00.946Z,2.77
2018-06-09T10:03:30.451Z,3.20
2018-06-09T10:05:59.752Z,2.40
2018-06-09T10:08:29.140Z,2.37
2018-06-09T10:10:58.483Z,1.90
2018-06-09T10:13:28.116Z,2.23
2018-06-09T10:15:57.659Z,2.40
2018-06-09T10:18:26.986Z,2.60
2018-06-09T10:20:56.329Z,1.77
2018-06-09T10:23:25.636Z,2.87
2018-06-09T10:25:54.927Z,2.30
2018-06-09T10:28:24.272Z,2.10
2018-06-09T10:30:53.703Z,2.50
2018-06-09T10:33:23.051Z,2.57
2018-06-09T10:35:52.291Z,2.17
2018-06-09T10:38:21.946Z,2.43
2018-06-09T10:40:51.216Z,2.50
2018-06-09T10:43:20.527Z,2.40
2018-06-09T10:45:49.906Z,2.73
2018-06-09T10:48:19.229Z,2.27
2018-06-09T10:50:48.535Z,2.50
2018-06-09T10:53:18.191Z,1.90
2018-06-09T10:55:47.477Z,2.43
2018-06-09T10:58:16.777Z,2.87
2018-06-09T11:00:46.155Z,3.83
2018-06-09T11:03:15.502Z,2.13
2018-06-09T11:05:44.837Z,2.70
2018-06-09T11:08:14.198Z,2.80
2018-06-09T11:10:43.275Z,2.87
2018-06-09T11:13:12.597Z,2.53
2018-06-09T11:15:42.495Z,2.60
2018-06-09T11:18:11.867Z,2.63
2018-06-09T11:20:41.370Z,2.73
2018-06-09T11:23:10.719Z,2.30
2018-06-09T11:25:39.786Z,2.60
2018-06-09T11:28:09.127Z,2.80
2018-06-09T11:30:38.505Z,2.30
2018-06-09T11:33:07.940Z,2.70
2018-06-09T11:35:37.274Z,2.80
2018-06-09T11:38:06.612Z,2.77
2018-06-09T11:40:35.880Z,3.10
2018-06-09T11:43:05.268Z,2.40
2018-06-09T11:45:34.825Z,2.57
2018-06-09T11:48:03.902Z,2.93
2018-06-09T11:50:33.170Z,2.67
2018-06-09T11:53:02.558Z,2.27
2018-06-09T11:55:31.907Z,3.00
2018-06-09T11:58:01.225Z,2.80
2018-06-09T12:00:30.544Z,2.77
2018-06-09T12:02:59.874Z,2.60
2018-06-09T12:05:29.152Z,3.00
2018-06-09T12:07:58.529Z,2.57
2018-06-09T12:10:27.804Z,2.70
2018-06-09T12:12:57.181Z,2.70
2018-06-09T12:15:26.553Z,2.90
2018-06-09T12:17:56.287Z,3.23
2018-06-09T12:20:25.590Z,2.73
2018-06-09T12:22:54.880Z,3.00
2018-06-09T12:25:24.225Z,4.00
2018-06-09T12:27:53.514Z,2.73
2018-06-09T12:30:23.339Z,2.80
2018-06-09T12:32:52.615Z,2.80
2018-06-09T12:35:21.905Z,3.43
2018-06-09T12:37:51.307Z,3.00
2018-06-09T12:40:20.581Z,3.40
2018-06-09T12:42:49.901Z,2.57
2018-06-09T12:45:19.219Z,3.10
2018-06-09T12:47:48.505Z,3.23
2018-06-09T12:50:17.841Z,3.37
2018-06-09T12:52:47.598Z,3.13
2018-06-09T12:55:17.150Z,2.90
2018-06-09T12:57:46.492Z,2.87
2018-06-09T13:00:15.873Z,3.13
2018-06-09T13:02:45.209Z,3.00
2018-06-09T13:05:14.564Z,3.10
2018-06-09T13:07:43.896Z,2.97
2018-06-09T13:10:13.206Z,3.10
2018-06-09T13:12:42.497Z,3.47
2018-06-09T13:15:12.145Z,3.30
2018-06-09T13:17:41.439Z,3.70
2018-06-09T13:20:11.025Z,2.90
2018-06-09T13:22:40.351Z,3.70
2018-06-09T13:25:09.784Z,3.13
2018-06-09T13:27:39.058Z,3.53
2018-06-09T13:30:08.151Z,3.07
2018-06-09T13:32:37.234Z,3.13
2018-06-09T13:35:06.658Z,4.20
2018-06-09T13:37:36.501Z,3.63
2018-06-09T13:40:05.807Z,3.50
2018-06-09T13:42:35.332Z,4.20
2018-06-09T13:45:04.674Z,4.80
2018-06-09T13:47:34.001Z,3.60
2018-06-09T13:50:03.255Z,3.87
2018-06-09T13:52:32.534Z,3.90
2018-06-09T13:55:01.858Z,4.13
2018-06-09T13:57:31.165Z,4.40
2018-06-09T14:00:00.745Z,3.87
2018-06-09T14:02:30.047Z,3.97
2018-06-09T14:04:59.348Z,4.20
2018-06-09T14:07:28.876Z,4.27
2018-06-09T14:09:58.215Z,3.50
2018-06-09T14:12:27.502Z,4.80
2018-06-09T14:14:56.905Z,3.73
2018-06-09T14:17:26.198Z,3.80
2018-06-09T14:19:55.278Z,3.97
2018-06-09T14:22:25.955Z,3.60
2018-06-09T14:24:54.982Z,3.70
2018-06-09T14:27:24.386Z,3.67
2018-06-09T14:29:53.743Z,3.47
2018-06-09T14:32:23.301Z,3.30
2018-06-09T14:34:52.612Z,3.60
2018-06-09T14:37:21.938Z,3.97
2018-06-09T14:39:51.294Z,3.73
2018-06-09T14:42:20.579Z,3.70
2018-06-09T14:44:50.133Z,3.70
2018-06-09T14:47:19.524Z,3.90
2018-06-09T14:49:48.839Z,3.80
2018-06-09T14:52:18.151Z,4.33
2018-06-09T14:54:47.551Z,3.80
2018-06-09T14:57:16.866Z,3.90
2018-06-09T14:59:46.384Z,3.30
2018-06-09T15:02:15.902Z,3.60
2018-06-09T15:04:45.343Z,3.90
2018-06-09T15:07:15.180Z,4.20
2018-06-09T15:09:44.507Z,4.17
2018-06-09T15:12:13.847Z,4.10
2018-06-09T15:14:43.168Z,3.80
2018-06-09T15:17:12.443Z,4.60
2018-06-09T15:19:41.748Z,3.90
2018-06-09T15:22:11.051Z,4.17
2018-06-09T15:24:40.880Z,4.50
2018-06-09T15:27:10.187Z,4.97
2018-06-09T15:29:39.602Z,4.63
2018-06-09T15:32:08.965Z,4.93
2018-06-09T15:34:38.490Z,4.50
2018-06-09T15:37:07.890Z,4.23
2018-06-09T15:39:37.175Z,4.53
2018-06-09T15:42:06.536Z,5.43
2018-06-09T15:44:35.902Z,4.90
2018-06-09T15:47:05.308Z,4.33
2018-06-09T15:49:34.634Z,4.63
2018-06-09T15:52:04.271Z,3.87
2018-06-09T15:54:33.659Z,4.50
2018-06-09T15:57:02.951Z,4.80
2018-06-09T15:59:32.051Z,4.80
2018-06-09T16:02:01.367Z,4.27
2018-06-09T16:04:30.714Z,4.30
2018-06-09T16:07:00.057Z,4.73
2018-06-09T16:09:29.569Z,5.10
2018-06-09T16:11:58.903Z,4.80
2018-06-09T16:14:28.443Z,4.93
2018-06-09T16:16:57.719Z,6.43
2018-06-09T16:19:26.998Z,6.00
2018-06-09T16:21:56.355Z,5.67
2018-06-09T16:24:25.660Z,4.17
2018-06-09T16:26:55.560Z,4.70
2018-06-09T16:29:24.917Z,4.77
2018-06-09T16:31:54.236Z,4.33
2018-06-09T16:34:23.548Z,4.63
2018-06-09T16:36:53.214Z,4.57
2018-06-09T16:39:22.472Z,4.47
2018-06-09T16:41:51.815Z,4.80
2018-06-09T16:44:20.911Z,4.90
2018-06-09T16:46:50.224Z,5.00
2018-06-09T16:49:19.785Z,5.07
2018-06-09T16:51:49.090Z,5.70
2018-06-09T16:54:18.394Z,5.03
2018-06-09T16:56:47.763Z,4.63
2018-06-09T16:59:17.166Z,4.50
2018-06-09T17:01:55.149Z,5.00
2018-06-09T17:04:24.642Z,5.50
2018-06-09T17:06:54.102Z,4.47
2018-06-09T17:09:23.601Z,5.00
2018-06-09T17:11:52.945Z,4.60
2018-06-09T17:14:22.310Z,4.73
2018-06-09T17:16:51.615Z,5.17
2018-06-09T17:19:20.944Z,4.97
2018-06-09T17:21:50.257Z,5.00
2018-06-09T17:24:19.309Z,5.33
2018-06-09T17:26:48.596Z,5.10
2018-06-09T17:29:18.056Z,7.10
2018-06-09T17:31:47.363Z,5.20
2018-06-09T17:34:16.700Z,6.00
2018-06-09T17:36:46.015Z,4.90
2018-06-09T17:39:15.349Z,5.00
2018-06-09T17:41:45.185Z,5.33
2018-06-09T17:44:14.536Z,4.60
2018-06-09T17:46:43.917Z,5.20
2018-06-09T17:49:13.264Z,4.30
2018-06-09T17:51:42.575Z,5.43
2018-06-09T17:54:11.869Z,4.43
2018-06-09T17:56:41.286Z,6.37
2018-06-09T17:59:10.609Z,6.07
2018-06-09T18:01:40.163Z,5.50
2018-06-09T18:04:09.925Z,5.47
2018-06-09T18:06:39.260Z,5.90
2018-06-09T18:09:09.600Z,6.20
2018-06-09T18:11:38.907Z,5.07
2018-06-09T18:14:08.482Z,5.30
2018-06-09T18:16:37.799Z,6.00
2018-06-09T18:19:07.224Z,5.80
2018-06-09T18:21:36.535Z,4.73
2018-06-09T18:24:05.973Z,5.03
2018-06-09T18:26:35.924Z,5.07
2018-06-09T18:29:05.319Z,6.07
2018-06-09T18:31:34.809Z,7.57
2018-06-09T18:34:04.179Z,7.80
2018-06-09T18:36:33.467Z,6.20
2018-06-09T18:39:02.738Z,6.57
2018-06-09T18:41:32.100Z,5.97
2018-06-09T18:44:01.405Z,5.87
2018-06-09T18:46:30.700Z,5.10
2018-06-09T18:49:00.160Z,4.10
2018-06-09T18:51:29.818Z,4.90
2018-06-09T18:53:59.420Z,4.97
2018-06-09T18:56:28.789Z,4.67
2018-06-09T18:58:58.155Z,4.80
2018-06-09T19:01:27.545Z,5.70
2018-06-09T19:03:56.879Z,5.13
2018-06-09T19:06:26.461Z,6.37
2018-06-09T19:08:55.776Z,5.97
2018-06-09T19:11:25.314Z,7.00
2018-06-09T19:13:54.668Z,6.00
2018-06-09T19:16:24.096Z,5.57
2018-06-09T19:18:53.622Z,5.33
2018-06-09T19:21:22.965Z,6.20
2018-06-09T19:23:52.313Z,5.80
2018-06-09T19:26:21.712Z,5.50
2018-06-09T19:28:51.016Z,5.30
2018-06-09T19:31:20.364Z,5.53
2018-06-09T19:33:50.091Z,5.00
2018-06-09T19:36:19.548Z,5.30
2018-06-09T19:38:48.892Z,6.00
2018-06-09T19:41:18.303Z,5.47
2018-06-09T19:43:48.121Z,5.03
2018-06-09T19:46:17.741Z,5.60
2018-06-09T19:48:47.373Z,4.63
2018-06-09T19:51:16.861Z,5.50
2018-06-09T19:53:46.338Z,4.63
2018-06-09T19:56:16.194Z,4.57
2018-06-09T19:58:45.692Z,5.13
2018-06-09T20:01:15.207Z,5.30
2018-06-09T20:03:44.677Z,5.03
2018-06-09T20:06:14.255Z,5.43
2018-06-09T20:08:44.044Z,5.60
2018-06-09T20:11:13.691Z,5.40
2018-06-09T20:13:43.255Z,5.37
2018-06-09T20:16:13.682Z,5.80
2018-06-09T20:18:43.297Z,5.17
2018-06-09T20:21:12.752Z,5.37
2018-06-09T20:23:42.111Z,5.90
2018-06-09T20:26:11.492Z,5.50
2018-06-09T20:28:40.857Z,5.57
2018-06-09T20:31:10.220Z,5.00
2018-06-09T20:33:39.570Z,5.80
2018-06-09T20:36:09.148Z,6.13
2018-06-09T20:38:39.071Z,5.37
2018-06-09T20:41:08.909Z,5.50
2018-06-09T20:43:38.706Z,5.50
2018-06-09T20:46:08.428Z,5.17
2018-06-09T20:48:37.753Z,5.40
2018-06-09T20:51:07.290Z,5.60
2018-06-09T20:53:36.689Z,5.30
2018-06-09T20:56:06.182Z,5.63
2018-06-09T20:58:40.535Z,5.37
2018-06-09T21:01:10.155Z,4.87
2018-06-09T21:03:39.507Z,5.10
2018-06-09T21:06:08.859Z,4.80
2018-06-09T21:08:38.307Z,5.27
2018-06-09T21:11:07.896Z,5.63
2018-06-09T21:13:37.344Z,5.00
2018-06-09T21:16:06.700Z,4.70
2018-06-09T21:18:36.333Z,4.70
2018-06-09T21:21:05.669Z,5.70
2018-06-09T21:23:35.161Z,5.20
2018-06-09T21:26:04.651Z,5.90
2018-06-09T21:28:39.363Z,5.07
2018-06-09T21:31:13.892Z,4.93
2018-06-09T21:34:05.839Z,4.97
2018-06-09T21:36:40.451Z,5.70
2018-06-09T21:39:20.239Z,5.33
2018-06-09T21:41:55.001Z,6.10
2018-06-09T21:44:29.520Z,5.43
2018-06-09T21:46:58.959Z,5.77
2018-06-09T21:49:28.328Z,4.93
2018-06-09T21:51:57.686Z,5.20
2018-06-09T21:54:27.109Z,5.37
2018-06-09T21:56:56.654Z,6.07
2018-06-09T21:59:26.236Z,6.57
2018-06-09T22:01:55.880Z,5.37
2018-06-09T22:04:25.277Z,5.80
2018-06-09T22:06:54.844Z,5.57
2018-06-09T22:09:24.177Z,5.70
2018-06-09T22:11:53.767Z,6.10
2018-06-09T22:14:22.979Z,6.10
2018-06-09T22:16:52.518Z,7.20
2018-06-09T22:19:21.910Z,5.73
2018-06-09T22:21:51.479Z,6.10
2018-06-09T22:24:20.751Z,5.70
2018-06-09T22:26:50.249Z,5.70
2018-06-09T22:29:19.979Z,9.50
2018-06-09T22:31:49.615Z,6.37
2018-06-09T22:34:19.212Z,6.13
2018-06-09T22:36:48.934Z,5.00
2018-06-09T22:39:18.412Z,5.30
2018-06-09T22:41:47.864Z,6.57
2018-06-09T22:44:17.888Z,5.70
2018-06-09T22:46:47.364Z,5.07
2018-06-09T22:49:16.968Z,8.67
2018-06-09T22:51:46.678Z,6.87
2018-06-09T22:54:16.314Z,5.70
2018-06-09T22:56:46.099Z,5.30
2018-06-09T22:59:15.912Z,5.70
2018-06-09T23:01:45.653Z,5.17
2018-06-09T23:04:15.162Z,6.23
2018-06-09T23:06:45.135Z,6.00
2018-06-09T23:09:14.940Z,5.80
2018-06-09T23:11:44.484Z,5.50
2018-06-09T23:14:14.172Z,4.90
2018-06-09T23:16:43.932Z,5.70
2018-06-09T23:19:13.527Z,5.03
2018-06-09T23:21:43.215Z,5.40
2018-06-09T23:24:12.708Z,5.77
2018-06-09T23:26:42.422Z,5.90
2018-06-09T23:29:13.046Z,5.80
2018-06-09T23:31:42.866Z,5.90
2018-06-09T23:34:12.761Z,6.30
2018-06-09T23:36:42.387Z,5.97
2018-06-09T23:39:11.796Z,5.73
2018-06-09T23:41:41.264Z,6.30
2018-06-09T23:44:10.654Z,5.90
2018-06-09T23:46:40.383Z,6.80
2018-06-09T23:49:10.334Z,6.17
2018-06-09T23:51:40.122Z,6.20
2018-06-09T23:54:09.960Z,6.23
2018-06-09T23:56:39.777Z,6.50
2018-06-09T23:59:09.852Z,6.07
